Time;durP1;ratioP1;P1;durP2;ratioP2;P2;SDS_P1;SDS_P2;PMS_P1;PMS_P2;Temp;Humidity;BMP_temperature;BMP_pressure;BME280_temperature;BME280_humidity;BME280_pressure;Samples;Min_cycle;Max_cycle;Signal;HPM_P1;HPM_P2
2022/07/18 00:01:44;;;;;;;;;;;16.10;99.90;;;;;;5079413;28;19929;-73
2022/07/18 00:04:09;;;;;;;;;;;16.10;99.90;;;;;;5043653;28;19975;-72
2022/07/18 00:06:35;;;;;;;;;;;16.10;99.90;;;;;;5044663;28;19933;-73
2022/07/18 00:09:01;;;;;;;;;;;16.10;99.90;;;;;;5044142;28;19921;-73
2022/07/18 00:11:26;;;;;;;;;;;16.00;99.90;;;;;;5041401;28;19929;-73
2022/07/18 00:13:52;;;;;;;;;;;16.00;99.90;;;;;;5041436;28;20023;-74
2022/07/18 00:16:18;;;;;;;;;;;16.00;99.90;;;;;;5042809;28;19927;-73
2022/07/18 00:18:44;;;;;;;;;;;16.00;99.90;;;;;;5075450;28;19960;-74
2022/07/18 00:21:09;;;;;;;;;;;16.00;99.90;;;;;;5046768;28;19921;-74
2022/07/18 00:23:35;;;;;;;;;;;15.90;99.90;;;;;;5043428;28;19931;-74
2022/07/18 00:26:01;;;;;;;;;;;15.90;99.90;;;;;;5073662;28;19921;-74
2022/07/18 00:28:26;;;;;;;;;;;15.90;99.90;;;;;;5074500;28;19929;-72
2022/07/18 00:30:52;;;;;;;;;;;15.80;99.90;;;;;;5043390;28;19924;-72
2022/07/18 00:33:17;;;;;;;;;;;15.80;99.90;;;;;;5074042;28;19932;-72
2022/07/18 00:35:43;;;;;;;;;;;15.70;99.90;;;;;;5077668;28;19998;-72
2022/07/18 00:38:09;;;;;;;;;;;15.70;99.90;;;;;;5076932;28;20429;-72
2022/07/18 00:40:34;;;;;;;;;;;15.70;99.90;;;;;;5044293;28;19956;-72
2022/07/18 00:43:00;;;;;;;;;;;15.70;99.90;;;;;;5044494;28;19967;-72
2022/07/18 00:45:26;;;;;;;;;;;15.70;99.90;;;;;;5043298;28;19967;-72
2022/07/18 00:47:51;;;;;;;;;;;15.70;99.90;;;;;;5040520;28;19936;-72
2022/07/18 00:50:18;;;;;;;;;;;15.70;99.90;;;;;;5042068;28;19942;-72
2022/07/18 00:52:44;;;;;;;;;;;15.70;99.90;;;;;;5074771;28;19920;-72
2022/07/18 00:55:09;;;;;;;;;;;15.60;99.90;;;;;;5074883;28;20269;-72
2022/07/18 00:57:36;;;;;;;;;;;15.60;99.90;;;;;;5046046;28;19947;-72
2022/07/18 01:02:47;;;;;;;;;;;15.40;99.90;;;;;;5040511;28;20016;-73
2022/07/18 01:05:13;;;;;;;;;;;15.30;99.90;;;;;;5074383;28;20395;-73
2022/07/18 01:07:38;;;;;;;;;;;15.30;99.90;;;;;;5044495;28;19925;-72
2022/07/18 01:10:04;;;;;;;;;;;15.40;99.90;;;;;;5043535;28;21652;-72
2022/07/18 01:12:30;;;;;;;;;;;15.40;99.90;;;;;;5045073;28;20287;-72
2022/07/18 01:14:57;;;;;;;;;;;15.30;99.90;;;;;;5042414;28;19927;-72
2022/07/18 01:17:23;;;;;;;;;;;15.40;99.90;;;;;;5044923;28;19926;-72
2022/07/18 01:19:48;;;;;;;;;;;15.40;99.90;;;;;;5044783;28;20314;-72
2022/07/18 01:22:15;;;;;;;;;;;15.30;99.90;;;;;;5041700;28;20298;-72
2022/07/18 01:24:41;;;;;;;;;;;15.40;99.90;;;;;;5036559;28;19925;-72
2022/07/18 01:27:07;;;;;;;;;;;15.30;99.90;;;;;;5037403;28;20290;-72
2022/07/18 01:29:32;;;;;;;;;;;15.40;99.90;;;;;;5073012;28;19920;-72
2022/07/18 01:32:05;;;;;;;;;;;15.30;99.90;;;;;;5040288;28;19997;-72
2022/07/18 01:34:30;;;;;;;;;;;15.30;99.90;;;;;;5073402;28;19921;-72
2022/07/18 01:36:56;;;;;;;;;;;15.30;99.90;;;;;;5035402;28;20379;-73
2022/07/18 01:39:21;;;;;;;;;;;15.30;99.90;;;;;;5035772;28;20638;-72
2022/07/18 01:41:54;;;;;;;;;;;15.30;99.90;;;;;;5032547;28;20398;-73
2022/07/18 01:44:19;;;;;;;;;;;15.30;99.90;;;;;;5068520;28;19921;-72
2022/07/18 01:46:45;;;;;;;;;;;15.30;99.90;;;;;;5037778;28;19931;-73
2022/07/18 01:49:10;;;;;;;;;;;15.30;99.90;;;;;;5066783;28;19925;-72
2022/07/18 01:51:36;;;;;;;;;;;15.20;99.90;;;;;;5037110;28;19921;-72
2022/07/18 01:54:01;;;;;;;;;;;15.20;99.90;;;;;;5038660;28;20395;-73
2022/07/18 01:56:27;;;;;;;;;;;15.10;99.90;;;;;;5035485;28;19940;-73
2022/07/18 01:58:53;;;;;;;;;;;15.10;99.90;;;;;;5035630;28;19924;-73
2022/07/18 02:01:18;;;;;;;;;;;15.10;99.90;;;;;;5039446;28;19933;-72
2022/07/18 02:03:44;;;;;;;;;;;15.10;99.90;;;;;;5071068;28;19921;-72
2022/07/18 02:06:09;;;;;;;;;;;15.10;99.90;;;;;;5034093;28;19929;-72
2022/07/18 02:08:35;;;;;;;;;;;15.00;99.90;;;;;;5037076;28;19999;-72
2022/07/18 02:11:00;;;;;;;;;;;15.10;99.90;;;;;;5071695;28;19921;-72
2022/07/18 02:13:26;;;;;;;;;;;15.00;99.90;;;;;;5029850;28;19925;-72
2022/07/18 02:15:55;;;;;;;;;;;15.00;99.90;;;;;;5033282;28;19921;-72
2022/07/18 02:18:20;;;;;;;;;;;15.00;99.90;;;;;;5038460;28;20361;-72
2022/07/18 02:20:46;;;;;;;;;;;15.00;99.90;;;;;;5034189;28;19976;-72
2022/07/18 02:23:12;;;;;;;;;;;15.00;99.90;;;;;;5068501;28;19925;-72
2022/07/18 02:25:37;;;;;;;;;;;14.90;99.90;;;;;;5038233;28;19948;-72
2022/07/18 02:28:04;;;;;;;;;;;14.90;99.90;;;;;;5038137;28;19932;-72
2022/07/18 02:30:29;;;;;;;;;;;14.90;99.90;;;;;;5039460;28;20364;-72
2022/07/18 02:32:55;;;;;;;;;;;14.90;99.90;;;;;;5033468;28;20003;-72
2022/07/18 02:35:21;;;;;;;;;;;14.80;99.90;;;;;;5037067;28;20011;-72
2022/07/18 02:37:46;;;;;;;;;;;14.70;99.90;;;;;;5038435;28;19933;-72
2022/07/18 02:40:12;;;;;;;;;;;14.60;99.90;;;;;;5038576;28;19925;-72
2022/07/18 02:42:38;;;;;;;;;;;14.50;99.90;;;;;;5074317;28;19932;-72
2022/07/18 02:45:04;;;;;;;;;;;14.30;99.90;;;;;;5043736;28;19937;-72
2022/07/18 02:47:30;;;;;;;;;;;14.30;99.90;;;;;;5072498;28;20276;-72
2022/07/18 02:49:56;;;;;;;;;;;14.20;99.90;;;;;;5043322;28;19928;-72
2022/07/18 02:52:21;;;;;;;;;;;14.10;99.90;;;;;;5074009;28;19995;-72
2022/07/18 02:54:47;;;;;;;;;;;14.10;99.90;;;;;;5041688;28;19928;-72
2022/07/18 02:57:12;;;;;;;;;;;14.10;99.90;;;;;;5062733;28;20019;-72
2022/07/18 02:59:38;;;;;;;;;;;14.10;99.90;;;;;;5038424;28;19925;-72
2022/07/18 03:02:04;;;;;;;;;;;14.00;99.90;;;;;;5037083;28;19921;-72
2022/07/18 03:04:29;;;;;;;;;;;14.00;99.90;;;;;;5040794;28;19921;-72
2022/07/18 03:06:55;;;;;;;;;;;14.00;99.90;;;;;;5043139;28;19932;-72
2022/07/18 03:09:21;;;;;;;;;;;14.10;99.90;;;;;;5044022;28;19931;-72
2022/07/18 03:11:46;;;;;;;;;;;14.10;99.90;;;;;;5038865;28;19935;-72
2022/07/18 03:14:12;;;;;;;;;;;14.10;99.90;;;;;;5041678;28;19953;-72
2022/07/18 03:16:37;;;;;;;;;;;14.20;99.90;;;;;;5039749;28;19929;-72
2022/07/18 03:19:03;;;;;;;;;;;14.20;99.90;;;;;;5042898;28;19924;-72
2022/07/18 03:21:29;;;;;;;;;;;14.20;99.90;;;;;;5038915;28;20018;-72
2022/07/18 03:23:54;;;;;;;;;;;14.20;99.90;;;;;;5039973;28;19921;-73
2022/07/18 03:26:20;;;;;;;;;;;14.20;99.90;;;;;;5041232;28;19928;-72
2022/07/18 03:28:46;;;;;;;;;;;14.20;99.90;;;;;;5040311;28;19928;-72
2022/07/18 03:31:11;;;;;;;;;;;14.20;99.90;;;;;;5073911;28;19928;-72
2022/07/18 03:33:38;;;;;;;;;;;14.20;99.90;;;;;;5039472;28;19929;-73
2022/07/18 03:36:03;;;;;;;;;;;14.20;99.90;;;;;;5072954;28;20407;-73
2022/07/18 03:38:29;;;;;;;;;;;14.30;99.90;;;;;;5040827;28;20011;-73
2022/07/18 03:40:54;;;;;;;;;;;14.30;99.90;;;;;;5043187;28;19956;-72
2022/07/18 03:43:20;;;;;;;;;;;14.30;99.90;;;;;;5042069;28;20058;-72
2022/07/18 03:45:46;;;;;;;;;;;14.30;99.90;;;;;;5072707;28;20560;-72
2022/07/18 03:48:12;;;;;;;;;;;14.30;99.90;;;;;;5039491;28;20302;-72
2022/07/18 03:50:37;;;;;;;;;;;14.30;99.90;;;;;;5035823;28;19935;-72
2022/07/18 03:53:03;;;;;;;;;;;14.20;99.90;;;;;;5066360;28;19925;-72
2022/07/18 03:55:28;;;;;;;;;;;14.20;99.90;;;;;;5034887;28;19932;-72
2022/07/18 03:57:54;;;;;;;;;;;14.20;99.90;;;;;;5035294;28;19932;-72
2022/07/18 04:00:20;;;;;;;;;;;14.20;99.90;;;;;;5043968;28;19928;-72
2022/07/18 04:02:46;;;;;;;;;;;14.30;99.90;;;;;;5037717;28;19978;-72
2022/07/18 04:05:12;;;;;;;;;;;14.30;99.90;;;;;;5070153;28;19936;-72
2022/07/18 04:07:38;;;;;;;;;;;14.30;99.90;;;;;;5035271;28;20318;-72
2022/07/18 04:10:04;;;;;;;;;;;14.40;99.90;;;;;;5039476;28;19974;-72
2022/07/18 04:12:30;;;;;;;;;;;14.40;99.90;;;;;;5041500;28;20406;-72
2022/07/18 04:14:56;;;;;;;;;;;14.40;99.90;;;;;;5037224;28;19920;-72
2022/07/18 04:17:21;;;;;;;;;;;14.40;99.90;;;;;;5040979;28;20402;-72
2022/07/18 04:19:47;;;;;;;;;;;14.50;99.90;;;;;;5074288;28;20387;-72
2022/07/18 04:22:13;;;;;;;;;;;14.50;99.90;;;;;;5073702;28;20535;-72
2022/07/18 04:24:38;;;;;;;;;;;14.50;99.90;;;;;;5043929;28;19931;-72
2022/07/18 04:27:04;;;;;;;;;;;14.60;99.90;;;;;;5037763;28;19925;-72
2022/07/18 04:29:31;;;;;;;;;;;14.60;99.90;;;;;;5066509;28;20745;-72
2022/07/18 04:32:00;;;;;;;;;;;14.60;99.90;;;;;;5036210;28;20071;-72
2022/07/18 04:34:25;;;;;;;;;;;14.70;99.90;;;;;;5044666;28;19963;-72
2022/07/18 04:36:51;;;;;;;;;;;14.70;99.90;;;;;;5042379;28;19972;-72
2022/07/18 04:39:16;;;;;;;;;;;14.70;99.90;;;;;;5069079;28;20147;-72
2022/07/18 04:41:42;;;;;;;;;;;14.80;99.90;;;;;;5070005;28;19920;-72
2022/07/18 04:44:08;;;;;;;;;;;14.80;99.90;;;;;;5034789;28;19928;-72
2022/07/18 04:46:33;;;;;;;;;;;14.80;99.90;;;;;;5040845;28;21855;-72
2022/07/18 04:48:59;;;;;;;;;;;14.90;99.90;;;;;;5040061;28;21974;-72
2022/07/18 04:51:24;;;;;;;;;;;14.90;99.90;;;;;;5070801;28;19929;-72
2022/07/18 04:53:50;;;;;;;;;;;15.00;99.90;;;;;;5038173;28;20051;-72
2022/07/18 04:56:15;;;;;;;;;;;15.00;99.90;;;;;;5037723;28;19932;-72
2022/07/18 04:58:41;;;;;;;;;;;15.00;99.90;;;;;;5034084;28;20011;-72
2022/07/18 05:01:06;;;;;;;;;;;15.10;99.90;;;;;;5034636;28;19928;-72
2022/07/18 05:03:32;;;;;;;;;;;15.20;99.90;;;;;;5038800;28;19928;-72
2022/07/18 05:05:58;;;;;;;;;;;15.30;99.90;;;;;;5037404;28;19920;-72
2022/07/18 05:08:23;;;;;;;;;;;15.30;99.90;;;;;;5038826;28;19932;-73
2022/07/18 05:10:49;;;;;;;;;;;15.40;99.90;;;;;;5038810;28;19959;-72
2022/07/18 05:13:15;;;;;;;;;;;15.40;99.90;;;;;;5038482;28;19921;-72
2022/07/18 05:15:40;;;;;;;;;;;15.40;99.90;;;;;;5069010;28;19920;-72
2022/07/18 05:18:06;;;;;;;;;;;15.50;99.90;;;;;;5037847;28;19973;-73
2022/07/18 05:20:31;;;;;;;;;;;15.50;99.90;;;;;;5035611;28;20016;-72
2022/07/18 05:22:57;;;;;;;;;;;15.60;99.90;;;;;;5070246;28;20016;-72
2022/07/18 05:25:23;;;;;;;;;;;15.60;99.90;;;;;;5037543;28;19979;-72
2022/07/18 05:27:48;;;;;;;;;;;15.70;99.90;;;;;;5034639;28;19932;-72
2022/07/18 05:30:15;;;;;;;;;;;15.90;99.90;;;;;;5033791;28;19943;-71
2022/07/18 05:32:41;;;;;;;;;;;15.80;99.90;;;;;;5066767;28;19967;-71
2022/07/18 05:35:07;;;;;;;;;;;15.90;99.90;;;;;;5038713;28;19940;-72
2022/07/18 05:37:35;;;;;;;;;;;15.90;99.90;;;;;;5035871;28;19925;-72
2022/07/18 05:40:01;;;;;;;;;;;15.90;99.90;;;;;;5039927;28;20000;-73
2022/07/18 05:42:26;;;;;;;;;;;16.00;99.90;;;;;;5073326;28;20024;-72
2022/07/18 05:44:52;;;;;;;;;;;16.10;99.90;;;;;;5046227;28;19921;-72
2022/07/18 05:47:17;;;;;;;;;;;16.20;99.90;;;;;;5083527;28;20383;-72
2022/07/18 05:49:43;;;;;;;;;;;16.30;99.90;;;;;;5080240;28;20011;-73
2022/07/18 05:52:08;;;;;;;;;;;16.50;99.90;;;;;;5049951;28;19921;-73
2022/07/18 05:54:34;;;;;;;;;;;16.60;99.90;;;;;;5079734;28;19928;-73
2022/07/18 05:56:59;;;;;;;;;;;16.60;99.90;;;;;;5047800;28;19920;-74
2022/07/18 05:59:25;;;;;;;;;;;16.80;99.90;;;;;;5078574;28;19921;-73
2022/07/18 06:01:50;;;;;;;;;;;16.90;99.90;;;;;;5048094;28;19921;-73
2022/07/18 06:04:16;;;;;;;;;;;17.00;99.90;;;;;;5047794;28;19983;-72
2022/07/18 06:06:43;;;;;;;;;;;17.10;99.90;;;;;;5033931;28;19932;-73
2022/07/18 06:09:08;;;;;;;;;;;17.20;99.90;;;;;;5034975;28;19925;-72
2022/07/18 06:11:34;;;;;;;;;;;17.30;99.90;;;;;;5068623;28;19921;-72
2022/07/18 06:14:02;;;;;;;;;;;17.40;99.90;;;;;;5047608;28;19920;-73
2022/07/18 06:16:28;;;;;;;;;;;17.50;99.90;;;;;;5047970;28;19921;-72
2022/07/18 06:18:54;;;;;;;;;;;17.60;99.90;;;;;;5040848;28;19932;-73
2022/07/18 06:21:19;;;;;;;;;;;17.70;99.90;;;;;;5036799;28;19925;-72
2022/07/18 06:23:45;;;;;;;;;;;17.80;99.90;;;;;;5041820;28;19921;-73
2022/07/18 06:26:10;;;;;;;;;;;17.90;99.90;;;;;;5044920;28;19928;-73
2022/07/18 06:28:36;;;;;;;;;;;18.00;99.90;;;;;;5049354;28;19931;-72
2022/07/18 06:31:02;;;;;;;;;;;18.10;99.90;;;;;;5049713;28;20451;-72
2022/07/18 06:33:27;;;;;;;;;;;18.20;99.90;;;;;;5048929;28;19978;-72
2022/07/18 06:35:53;;;;;;;;;;;18.40;99.90;;;;;;5041028;28;19932;-73
2022/07/18 06:38:18;;;;;;;;;;;18.50;99.90;;;;;;5046726;28;19940;-73
2022/07/18 06:40:44;;;;;;;;;;;18.60;99.90;;;;;;5050773;28;19932;-72
2022/07/18 06:43:10;;;;;;;;;;;18.70;99.90;;;;;;5046195;28;19963;-72
2022/07/18 06:45:36;;;;;;;;;;;18.80;99.90;;;;;;5048436;28;19967;-73
2022/07/18 06:48:01;;;;;;;;;;;18.90;99.90;;;;;;5034312;28;19925;-76
2022/07/18 06:50:27;;;;;;;;;;;19.00;99.90;;;;;;5071872;28;19921;-77
2022/07/18 06:52:53;;;;;;;;;;;19.00;99.90;;;;;;5066229;28;20035;-74
2022/07/18 06:55:18;;;;;;;;;;;19.10;99.90;;;;;;5069414;28;19967;-73
2022/07/18 06:57:44;;;;;;;;;;;19.50;99.90;;;;;;5040612;28;19996;-72
2022/07/18 07:00:11;;;;;;;;;;;19.30;99.90;;;;;;5040668;28;19928;-74
2022/07/18 07:02:40;;;;;;;;;;;19.30;99.90;;;;;;5042477;28;20008;-74
2022/07/18 07:05:06;;;;;;;;;;;19.40;99.90;;;;;;5048307;28;19920;-74
2022/07/18 07:07:32;;;;;;;;;;;19.50;99.90;;;;;;5048977;28;20016;-73
2022/07/18 07:09:57;;;;;;;;;;;19.60;99.90;;;;;;5050067;28;19921;-73
2022/07/18 07:12:23;;;;;;;;;;;19.80;99.90;;;;;;5048759;28;19928;-73
2022/07/18 07:14:48;;;;;;;;;;;19.90;99.90;;;;;;5049655;28;19982;-73
2022/07/18 07:17:14;;;;;;;;;;;20.00;99.90;;;;;;5045723;28;20012;-73
2022/07/18 07:19:40;;;;;;;;;;;20.20;99.90;;;;;;5049567;28;19920;-72
2022/07/18 07:22:05;;;;;;;;;;;20.40;99.90;;;;;;5040225;28;19921;-73
2022/07/18 07:24:31;;;;;;;;;;;20.50;99.90;;;;;;5048050;28;19920;-73
2022/07/18 07:26:56;;;;;;;;;;;20.70;99.90;;;;;;5044492;28;19932;-73
2022/07/18 07:29:22;;;;;;;;;;;20.80;99.90;;;;;;5048348;28;19981;-73
2022/07/18 07:31:47;;;;;;;;;;;20.90;99.90;;;;;;5077722;28;20392;-73
2022/07/18 07:34:14;;;;;;;;;;;21.00;99.90;;;;;;5080902;28;19921;-73
2022/07/18 07:36:39;;;;;;;;;;;21.20;99.90;;;;;;5083386;28;19968;-73
2022/07/18 07:39:06;;;;;;;;;;;21.30;99.90;;;;;;5047382;28;19929;-73
2022/07/18 07:41:32;;;;;;;;;;;21.30;99.90;;;;;;5081087;28;19922;-73
2022/07/18 07:43:57;;;;;;;;;;;21.40;99.90;;;;;;5053049;28;19927;-73
2022/07/18 07:46:23;;;;;;;;;;;21.50;99.90;;;;;;5052381;28;19924;-73
2022/07/18 07:48:48;;;;;;;;;;;21.60;99.90;;;;;;5053923;28;19940;-73
2022/07/18 07:51:14;;;;;;;;;;;21.80;99.90;;;;;;5049856;28;19921;-73
2022/07/18 07:53:40;;;;;;;;;;;21.90;99.90;;;;;;5048197;28;19982;-73
2022/07/18 07:56:05;;;;;;;;;;;22.10;99.90;;;;;;5052446;28;19927;-73
2022/07/18 07:58:31;;;;;;;;;;;22.30;99.90;;;;;;5050562;28;19992;-73
2022/07/18 08:00:57;;;;;;;;;;;22.40;99.00;;;;;;5049545;28;19920;-73
2022/07/18 08:03:22;;;;;;;;;;;22.50;97.50;;;;;;5066716;28;19928;-73
2022/07/18 08:05:48;;;;;;;;;;;22.70;98.20;;;;;;5083093;28;19929;-73
2022/07/18 08:08:15;;;;;;;;;;;22.90;91.40;;;;;;5051514;28;20004;-73
2022/07/18 08:10:40;;;;;;;;;;;23.00;94.90;;;;;;5049431;28;19921;-73
2022/07/18 08:13:06;;;;;;;;;;;23.20;94.40;;;;;;5051344;28;19921;-73
2022/07/18 08:15:32;;;;;;;;;;;23.30;87.80;;;;;;5050352;28;19920;-73
2022/07/18 08:17:58;;;;;;;;;;;23.40;92.60;;;;;;5053167;28;19925;-73
2022/07/18 08:20:23;;;;;;;;;;;23.40;90.10;;;;;;5053111;28;19920;-73
2022/07/18 08:22:59;;;;;;;;;;;23.50;90.90;;;;;;5052581;28;19921;-73
2022/07/18 08:25:26;;;;;;;;;;;23.60;90.30;;;;;;5044791;28;19924;-73
2022/07/18 08:27:51;;;;;;;;;;;23.80;88.90;;;;;;5049200;28;19925;-73
2022/07/18 08:30:17;;;;;;;;;;;23.90;90.40;;;;;;5045263;28;19920;-73
2022/07/18 08:32:43;;;;;;;;;;;24.10;89.20;;;;;;5083034;28;20295;-73
2022/07/18 08:35:09;;;;;;;;;;;24.70;90.10;;;;;;5075680;28;19971;-73
2022/07/18 08:37:35;;;;;;;;;;;24.40;89.90;;;;;;5048903;28;19921;-73
2022/07/18 08:40:00;;;;;;;;;;;24.50;89.60;;;;;;5052656;28;19921;-73
2022/07/18 08:42:26;;;;;;;;;;;24.50;76.90;;;;;;5041317;28;19921;-73
2022/07/18 08:44:56;;;;;;;;;;;24.70;82.60;;;;;;5080969;28;19921;-73
2022/07/18 08:47:21;;;;;;;;;;;24.90;83.80;;;;;;5052275;28;19925;-73
2022/07/18 08:49:47;;;;;;;;;;;25.00;81.90;;;;;;5050110;28;19927;-73
2022/07/18 08:52:13;;;;;;;;;;;25.00;79.30;;;;;;5044166;28;19929;-73
2022/07/18 08:54:39;;;;;;;;;;;25.00;74.20;;;;;;5081989;28;20386;-73
2022/07/18 08:57:04;;;;;;;;;;;25.00;72.80;;;;;;5049867;28;19984;-78
2022/07/18 08:59:30;;;;;;;;;;;25.30;75.80;;;;;;5063546;28;20298;-73
2022/07/18 09:01:55;;;;;;;;;;;25.40;70.70;;;;;;5042672;28;19931;-73
2022/07/18 09:04:33;;;;;;;;;;;25.50;73.60;;;;;;5048801;28;19920;-73
2022/07/18 09:06:59;;;;;;;;;;;25.40;69.00;;;;;;5078054;28;20023;-73
2022/07/18 09:09:24;;;;;;;;;;;25.60;69.40;;;;;;5036880;28;20007;-73
2022/07/18 09:11:54;;;;;;;;;;;25.80;68.00;;;;;;5043770;28;20023;-73
2022/07/18 09:14:38;;;;;;;;;;;25.90;64.80;;;;;;5042881;28;20403;-73
2022/07/18 09:17:06;;;;;;;;;;;26.10;66.90;;;;;;5077713;28;20310;-73
2022/07/18 09:19:32;;;;;;;;;;;26.20;65.00;;;;;;5046382;28;20379;-73
2022/07/18 09:22:15;;;;;;;;;;;26.30;67.00;;;;;;5044118;28;19920;-73
2022/07/18 09:25:01;;;;;;;;;;;26.40;63.60;;;;;;5079593;28;19921;-73
2022/07/18 09:27:53;;;;;;;;;;;26.50;61.60;;;;;;5079273;28;20384;-73
2022/07/18 09:30:21;;;;;;;;;;;26.70;64.20;;;;;;5075979;28;19925;-73
2022/07/18 09:33:02;;;;;;;;;;;26.80;61.00;;;;;;5039848;28;19967;-72
2022/07/18 09:35:28;;;;;;;;;;;27.00;63.90;;;;;;5077448;28;20339;-74
2022/07/18 09:38:00;;;;;;;;;;;27.20;60.50;;;;;;5045335;28;20379;-73
2022/07/18 09:40:30;;;;;;;;;;;27.30;63.40;;;;;;5048002;28;20310;-73
2022/07/18 09:42:58;;;;;;;;;;;27.50;65.00;;;;;;5042022;28;20481;-74
2022/07/18 09:45:25;;;;;;;;;;;27.60;61.60;;;;;;5071259;28;19925;-74
2022/07/18 09:47:52;;;;;;;;;;;27.60;58.10;;;;;;5081294;28;20070;-73
2022/07/18 09:50:25;;;;;;;;;;;27.60;52.30;;;;;;5049295;28;20411;-74
2022/07/18 09:52:58;;;;;;;;;;;27.70;58.00;;;;;;5048378;28;19921;-74
2022/07/18 09:55:24;;;;;;;;;;;27.70;56.20;;;;;;5079849;28;20388;-73
2022/07/18 09:57:57;;;;;;;;;;;27.80;56.00;;;;;;5047304;28;20303;-73
2022/07/18 10:00:23;;;;;;;;;;;27.90;55.50;;;;;;5050951;28;19924;-74
2022/07/18 10:02:48;;;;;;;;;;;28.10;55.50;;;;;;5049565;28;20924;-73
2022/07/18 10:05:14;;;;;;;;;;;28.30;54.10;;;;;;5050598;28;19921;-74
2022/07/18 10:07:42;;;;;;;;;;;28.30;53.10;;;;;;5044556;28;20454;-73
2022/07/18 10:10:07;;;;;;;;;;;28.40;52.90;;;;;;5038953;28;19983;-74
2022/07/18 10:12:33;;;;;;;;;;;28.50;53.20;;;;;;5049625;28;19976;-74
2022/07/18 10:14:59;;;;;;;;;;;28.40;50.50;;;;;;5046639;28;20280;-74
2022/07/18 10:17:24;;;;;;;;;;;28.70;49.40;;;;;;5078218;28;19925;-74
2022/07/18 10:19:50;;;;;;;;;;;28.50;52.50;;;;;;5081573;28;19925;-73
2022/07/18 10:22:16;;;;;;;;;;;28.70;52.80;;;;;;5046126;28;19925;-74
2022/07/18 10:24:41;;;;;;;;;;;28.70;51.50;;;;;;5074978;28;19944;-74
2022/07/18 10:27:14;;;;;;;;;;;28.90;52.90;;;;;;5072061;28;19925;-74
2022/07/18 10:30:00;;;;;;;;;;;28.50;46.80;;;;;;5048646;28;19967;-74
2022/07/18 10:32:36;;;;;;;;;;;28.60;50.00;;;;;;5043329;28;19956;-74
2022/07/18 10:35:01;;;;;;;;;;;28.80;50.10;;;;;;5047643;28;19921;-74
2022/07/18 10:37:30;;;;;;;;;;;29.00;51.10;;;;;;5050436;28;19920;-74
2022/07/18 10:40:16;;;;;;;;;;;29.20;54.50;;;;;;5041172;28;19921;-74
2022/07/18 10:42:42;;;;;;;;;;;29.60;52.40;;;;;;5045750;28;19928;-73
2022/07/18 10:45:26;;;;;;;;;;;29.80;52.40;;;;;;5045074;28;19954;-74
2022/07/18 10:47:52;;;;;;;;;;;29.90;47.60;;;;;;5045447;28;20338;-74
2022/07/18 10:50:17;;;;;;;;;;;29.90;48.80;;;;;;5050046;28;19921;-74
2022/07/18 10:52:43;;;;;;;;;;;30.10;45.80;;;;;;5083125;28;19928;-74
2022/07/18 10:55:09;;;;;;;;;;;30.10;48.60;;;;;;5044113;28;19927;-74
2022/07/18 10:57:35;;;;;;;;;;;30.00;47.90;;;;;;5042537;28;19928;-74
2022/07/18 11:00:01;;;;;;;;;;;30.20;50.30;;;;;;5053728;28;19947;-74
2022/07/18 11:02:30;;;;;;;;;;;30.20;42.70;;;;;;5079646;28;19921;-74
2022/07/18 11:04:56;;;;;;;;;;;30.40;49.20;;;;;;5051439;28;19971;-74
2022/07/18 11:07:21;;;;;;;;;;;30.40;43.30;;;;;;5086398;28;19972;-74
2022/07/18 11:09:47;;;;;;;;;;;30.40;45.80;;;;;;5047260;28;19928;-74
2022/07/18 11:12:16;;;;;;;;;;;30.50;47.30;;;;;;5078114;28;19925;-74
2022/07/18 11:14:57;;;;;;;;;;;30.60;47.60;;;;;;5044968;28;19929;-73
2022/07/18 11:17:43;;;;;;;;;;;30.70;45.90;;;;;;5076641;28;19940;-73
2022/07/18 11:20:27;;;;;;;;;;;30.60;45.70;;;;;;5041592;28;19921;-74
2022/07/18 11:22:52;;;;;;;;;;;30.50;44.20;;;;;;5043541;28;19921;-73
2022/07/18 11:25:18;;;;;;;;;;;30.50;46.10;;;;;;5045996;28;19921;-73
2022/07/18 11:27:44;;;;;;;;;;;30.40;44.60;;;;;;5043828;28;19987;-73
2022/07/18 11:30:10;;;;;;;;;;;30.50;46.60;;;;;;5043312;28;19968;-73
2022/07/18 11:32:36;;;;;;;;;;;30.70;45.60;;;;;;5049244;28;19948;-73
2022/07/18 11:35:05;;;;;;;;;;;30.90;47.40;;;;;;5044832;28;19920;-74
2022/07/18 11:37:31;;;;;;;;;;;30.90;43.60;;;;;;5052686;28;19924;-74
2022/07/18 11:40:03;;;;;;;;;;;31.00;46.70;;;;;;5051262;28;19921;-73
2022/07/18 11:42:38;;;;;;;;;;;31.00;44.60;;;;;;5085866;28;19920;-74
2022/07/18 11:45:05;;;;;;;;;;;30.90;41.90;;;;;;5051156;28;19966;-74
2022/07/18 11:47:30;;;;;;;;;;;30.80;44.60;;;;;;5050364;28;20453;-74
2022/07/18 11:49:56;;;;;;;;;;;30.80;43.80;;;;;;5048817;28;19929;-73
2022/07/18 11:52:22;;;;;;;;;;;30.70;45.90;;;;;;5082760;28;19957;-74
2022/07/18 11:54:47;;;;;;;;;;;30.60;39.60;;;;;;5050471;28;19928;-74
2022/07/18 11:57:25;;;;;;;;;;;30.50;46.70;;;;;;5046253;28;19967;-74
2022/07/18 11:59:50;;;;;;;;;;;30.60;56.80;;;;;;5048050;28;19924;-73
2022/07/18 12:02:16;;;;;;;;;;;30.60;43.90;;;;;;5049111;28;19925;-74
2022/07/18 12:04:41;;;;;;;;;;;30.60;44.90;;;;;;5051146;28;19936;-74
2022/07/18 12:07:17;;;;;;;;;;;30.60;44.50;;;;;;5050025;28;19954;-74
2022/07/18 12:09:42;;;;;;;;;;;30.70;46.80;;;;;;5043461;28;19925;-74
2022/07/18 12:12:09;;;;;;;;;;;30.80;44.80;;;;;;5084555;28;19991;-74
2022/07/18 12:14:34;;;;;;;;;;;31.00;42.70;;;;;;5052935;28;19924;-74
2022/07/18 12:17:00;;;;;;;;;;;31.00;44.00;;;;;;5052828;28;19944;-74
2022/07/18 12:19:33;;;;;;;;;;;31.30;45.30;;;;;;5046783;28;19944;-74
2022/07/18 12:22:02;;;;;;;;;;;31.30;40.40;;;;;;5076392;28;19924;-74
2022/07/18 12:24:29;;;;;;;;;;;31.50;43.20;;;;;;5081473;28;19921;-73
2022/07/18 12:27:13;;;;;;;;;;;31.60;41.50;;;;;;5046467;28;19929;-74
2022/07/18 12:29:58;;;;;;;;;;;31.50;40.90;;;;;;5040925;28;19929;-74
2022/07/18 12:32:25;;;;;;;;;;;31.70;45.70;;;;;;5051252;28;20023;-74
2022/07/18 12:34:54;;;;;;;;;;;31.80;42.20;;;;;;5050060;28;19924;-73
2022/07/18 12:37:24;;;;;;;;;;;31.90;41.20;;;;;;5051991;28;19924;-74
2022/07/18 12:39:55;;;;;;;;;;;31.90;39.90;;;;;;5081074;28;19921;-74
2022/07/18 12:42:30;;;;;;;;;;;32.00;40.40;;;;;;5084305;28;19925;-74
2022/07/18 12:44:55;;;;;;;;;;;32.20;43.90;;;;;;5080727;28;20003;-74
2022/07/18 12:47:21;;;;;;;;;;;32.40;42.40;;;;;;5049800;28;20465;-74
2022/07/18 12:49:46;;;;;;;;;;;32.00;38.00;;;;;;5079838;28;19925;-74
2022/07/18 12:52:12;;;;;;;;;;;31.90;40.00;;;;;;5055895;28;20011;-74
2022/07/18 12:54:38;;;;;;;;;;;31.90;45.30;;;;;;5043798;28;19927;-74
2022/07/18 12:57:03;;;;;;;;;;;31.90;50.30;;;;;;5050618;28;20294;-74
2022/07/18 12:59:29;;;;;;;;;;;31.80;48.10;;;;;;5042877;28;19920;-74
2022/07/18 13:01:54;;;;;;;;;;;31.70;45.30;;;;;;5044199;28;20388;-74
2022/07/18 13:04:20;;;;;;;;;;;31.70;47.50;;;;;;5080915;28;20303;-74
2022/07/18 13:06:45;;;;;;;;;;;31.60;47.80;;;;;;5048505;28;19929;-74
2022/07/18 13:09:11;;;;;;;;;;;31.70;48.70;;;;;;5044326;28;20401;-74
2022/07/18 13:11:40;;;;;;;;;;;31.70;42.40;;;;;;5041889;28;19920;-75
2022/07/18 13:14:06;;;;;;;;;;;31.80;40.00;;;;;;5049473;28;19927;-75
2022/07/18 13:16:32;;;;;;;;;;;32.00;40.90;;;;;;5050401;28;19927;-75
2022/07/18 13:18:57;;;;;;;;;;;32.30;42.20;;;;;;5049204;28;19921;-75
2022/07/18 13:21:23;;;;;;;;;;;32.30;40.30;;;;;;5083129;28;19980;-75
2022/07/18 13:23:48;;;;;;;;;;;32.50;41.20;;;;;;5039120;28;20441;-75
2022/07/18 13:26:14;;;;;;;;;;;32.70;40.70;;;;;;5052634;28;19990;-74
2022/07/18 13:28:40;;;;;;;;;;;32.50;42.20;;;;;;5038920;28;19948;-72
2022/07/18 13:31:05;;;;;;;;;;;32.30;41.30;;;;;;5076289;28;20303;-72
2022/07/18 13:33:31;;;;;;;;;;;32.00;41.10;;;;;;5038507;28;19943;-72
2022/07/18 13:35:56;;;;;;;;;;;31.70;40.10;;;;;;5045764;28;19974;-72
2022/07/18 13:38:22;;;;;;;;;;;31.40;41.20;;;;;;5051056;28;19925;-72
2022/07/18 13:40:48;;;;;;;;;;;31.30;46.30;;;;;;5045717;28;19921;-72
2022/07/18 13:43:13;;;;;;;;;;;31.10;45.30;;;;;;5047155;28;19929;-73
2022/07/18 13:45:39;;;;;;;;;;;30.80;44.20;;;;;;5041964;28;20391;-73
2022/07/18 13:48:05;;;;;;;;;;;30.80;52.70;;;;;;5041624;28;19925;-73
2022/07/18 13:50:30;;;;;;;;;;;30.80;56.40;;;;;;5080390;28;19928;-73
2022/07/18 13:52:56;;;;;;;;;;;30.80;57.60;;;;;;5046634;28;20327;-73
2022/07/18 13:55:22;;;;;;;;;;;30.80;57.60;;;;;;5042700;28;20024;-73
2022/07/18 13:57:48;;;;;;;;;;;30.90;57.70;;;;;;5076015;28;19944;-73
2022/07/18 14:00:14;;;;;;;;;;;31.00;57.10;;;;;;5076109;28;19920;-73
2022/07/18 14:02:40;;;;;;;;;;;31.00;58.10;;;;;;5079211;28;19921;-73
2022/07/18 14:05:05;;;;;;;;;;;30.90;61.30;;;;;;5044044;28;20066;-73
2022/07/18 14:07:31;;;;;;;;;;;30.90;60.50;;;;;;5075444;28;19929;-73
2022/07/18 14:09:56;;;;;;;;;;;30.80;62.50;;;;;;5083640;28;19933;-73
2022/07/18 14:12:22;;;;;;;;;;;30.70;63.00;;;;;;5081652;28;19968;-73
2022/07/18 14:14:48;;;;;;;;;;;30.80;61.80;;;;;;5041469;28;19986;-73
2022/07/18 14:17:13;;;;;;;;;;;30.80;63.20;;;;;;5028803;28;20444;-73